createdAt,value
2018-04-26T00:02:16.440Z,97992.56
2018-04-26T00:04:44.696Z,97982.03
2018-04-26T00:07:13.712Z,97976.55
2018-04-26T00:09:41.963Z,97966.85
2018-04-26T00:12:10.995Z,97968.11
2018-04-26T00:14:39.238Z,97966.45
2018-04-26T00:17:07.487Z,97964.75
2018-04-26T00:19:35.735Z,97967.34
2018-04-26T00:22:03.991Z,97974.52
2018-04-26T00:24:32.237Z,97976.19
2018-04-26T00:27:00.487Z,97969.50
2018-04-26T00:29:28.737Z,97966.56
2018-04-26T00:31:56.985Z,97973.72
2018-04-26T00:34:25.228Z,97988.06
2018-04-26T00:36:53.478Z,97984.72
2018-04-26T00:39:21.727Z,97986.84
2018-04-26T00:41:49.984Z,97985.56
2018-04-26T00:44:18.226Z,97988.09
2018-04-26T00:46:46.483Z,97999.08
2018-04-26T00:49:14.735Z,97995.70
2018-04-26T00:52:00.597Z,97992.77
2018-04-26T00:54:28.835Z,97997.40
2018-04-26T00:56:57.096Z,97990.21
2018-04-26T00:59:25.357Z,97991.03
2018-04-26T01:01:53.597Z,98000.77
2018-04-26T01:04:21.856Z,97999.08
2018-04-26T01:06:50.108Z,98000.29
2018-04-26T01:09:18.371Z,97993.97
2018-04-26T01:11:46.938Z,98001.16
2018-04-26T01:14:15.190Z,97997.77
2018-04-26T01:16:43.433Z,98006.25
2018-04-26T01:19:12.449Z,98012.16
2018-04-26T01:21:40.685Z,98021.86
2018-04-26T01:24:08.945Z,98018.52
2018-04-26T01:26:37.187Z,98008.80
2018-04-26T01:29:05.450Z,98020.17
2018-04-26T01:31:34.464Z,98022.73
2018-04-26T01:34:02.724Z,98011.77
2018-04-26T01:36:48.752Z,98019.80
2018-04-26T01:39:17.005Z,98018.51
2018-04-26T01:41:45.249Z,98012.17
2018-04-26T01:44:14.271Z,98015.97
2018-04-26T01:46:42.513Z,98011.36
2018-04-26T01:49:10.769Z,98016.42
2018-04-26T01:51:39.021Z,98015.16
2018-04-26T01:54:07.469Z,98022.77
2018-04-26T01:56:35.716Z,98021.90
2018-04-26T01:59:04.731Z,98010.53
2018-04-26T02:01:32.985Z,98015.59
2018-04-26T02:04:01.993Z,98016.42
2018-04-26T02:06:30.252Z,98035.81
2018-04-26T02:08:59.265Z,98029.92
2018-04-26T02:11:27.520Z,98029.91
2018-04-26T02:13:55.770Z,98038.34
2018-04-26T02:16:24.025Z,98034.57
2018-04-26T02:18:52.279Z,98045.09
2018-04-26T02:21:20.530Z,98040.03
2018-04-26T02:23:49.543Z,98041.32
2018-04-26T02:26:17.795Z,98045.52
2018-04-26T02:28:46.799Z,98049.32
2018-04-26T02:31:15.815Z,98040.05
2018-04-26T02:33:44.064Z,98040.02
2018-04-26T02:36:12.324Z,98044.69
2018-04-26T02:38:40.558Z,98045.95
2018-04-26T02:41:08.817Z,98051.41
2018-04-26T02:43:37.061Z,98048.91
2018-04-26T02:46:06.066Z,98056.05
2018-04-26T02:48:34.325Z,98058.16
2018-04-26T02:51:02.565Z,98052.66
2018-04-26T02:53:30.824Z,98061.95
2018-04-26T02:55:59.066Z,98070.37
2018-04-26T02:58:27.319Z,98058.99
2018-04-26T03:00:55.562Z,98067.84
2018-04-26T03:03:23.814Z,98072.02
2018-04-26T03:05:52.060Z,98064.03
2018-04-26T03:08:21.128Z,98067.80
2018-04-26T03:10:49.317Z,98074.13
2018-04-26T03:13:18.328Z,98066.12
2018-04-26T03:15:46.578Z,98070.76
2018-04-26T03:18:14.831Z,98068.22
2018-04-26T03:20:43.073Z,98074.13
2018-04-26T03:23:11.321Z,98077.89
2018-04-26T03:25:40.341Z,98079.57
2018-04-26T03:28:08.604Z,98083.38
2018-04-26T03:30:36.853Z,98074.94
2018-04-26T03:33:05.872Z,98071.17
2018-04-26T03:35:34.110Z,98067.75
2018-04-26T03:38:02.383Z,98074.52
2018-04-26T03:40:30.617Z,98070.27
2018-04-26T03:42:58.864Z,98079.94
2018-04-26T03:45:27.883Z,98079.93
2018-04-26T03:47:56.133Z,98092.12
2018-04-26T03:50:25.152Z,98088.31
2018-04-26T03:52:53.394Z,98099.23
2018-04-26T03:55:21.642Z,98110.98
2018-04-26T03:57:49.889Z,98104.69
2018-04-26T04:00:35.971Z,98102.99
2018-04-26T04:03:21.976Z,98111.39
2018-04-26T04:08:56.004Z,98108.55
2018-04-26T04:11:24.342Z,98111.89
2018-04-26T04:13:52.528Z,98117.75
2018-04-26T04:16:21.526Z,98124.94
2018-04-26T04:18:49.780Z,98122.38
2018-04-26T04:21:18.797Z,98121.57
2018-04-26T04:23:47.057Z,98129.12
2018-04-26T04:26:15.301Z,98127.42
2018-04-26T04:28:43.552Z,98119.36
2018-04-26T04:31:11.801Z,98121.91
2018-04-26T04:33:40.054Z,98123.53
2018-04-26T04:36:09.072Z,98136.50
2018-04-26T04:38:37.309Z,98131.91
2018-04-26T04:41:06.332Z,98131.11
2018-04-26T04:43:34.571Z,98135.76
2018-04-26T04:46:02.826Z,98144.53
2018-04-26T04:48:31.081Z,98142.93
2018-04-26T04:50:59.338Z,98150.00
2018-04-26T04:53:27.585Z,98150.86
2018-04-26T04:55:55.838Z,98147.47
2018-04-26T04:58:24.077Z,98145.45
2018-04-26T05:00:52.330Z,98156.43
2018-04-26T05:03:20.578Z,98151.39
2018-04-26T05:05:48.834Z,98161.08
2018-04-26T05:08:17.073Z,98159.82
2018-04-26T05:10:45.325Z,98159.05
2018-04-26T05:13:14.333Z,98158.25
2018-04-26T05:15:42.588Z,98161.27
2018-04-26T05:18:10.834Z,98165.53
2018-04-26T05:20:39.082Z,98165.16
2018-04-26T05:23:07.320Z,98165.59
2018-04-26T05:25:35.591Z,98158.84
2018-04-26T05:28:03.828Z,98168.90
2018-04-26T05:30:32.070Z,98170.64
2018-04-26T05:33:00.321Z,98165.17
2018-04-26T05:35:28.568Z,98164.36
2018-04-26T05:37:56.825Z,98165.28
2018-04-26T05:40:25.069Z,98171.54
2018-04-26T05:42:53.326Z,98172.36
2018-04-26T05:45:21.574Z,98174.52
2018-04-26T05:47:49.822Z,98182.94
2018-04-26T05:50:18.070Z,98177.02
2018-04-26T05:52:46.332Z,98176.25
2018-04-26T05:55:14.584Z,98182.19
2018-04-26T05:57:43.602Z,98174.59
2018-04-26T06:00:11.855Z,98181.36
2018-04-26T06:02:40.116Z,98187.27
2018-04-26T06:05:08.361Z,98178.82
2018-04-26T06:07:36.618Z,98178.84
2018-04-26T06:10:04.866Z,98187.28
2018-04-26T06:12:33.130Z,98182.22
2018-04-26T06:15:01.369Z,98196.56
2018-04-26T06:17:29.628Z,98192.77
2018-04-26T06:19:57.877Z,98187.28
2018-04-26T06:22:26.135Z,98193.64
2018-04-26T06:24:54.393Z,98198.69
2018-04-26T06:27:22.652Z,98190.65
2018-04-26T06:29:51.686Z,98194.02
2018-04-26T06:32:20.696Z,98207.55
2018-04-26T06:34:48.958Z,98207.08
2018-04-26T06:37:17.198Z,98206.23
2018-04-26T06:39:45.451Z,98213.81
2018-04-26T06:42:13.736Z,98211.31
2018-04-26T06:44:41.969Z,98213.86
2018-04-26T06:47:10.225Z,98202.03
2018-04-26T06:49:38.487Z,98197.01
2018-04-26T06:52:06.738Z,98208.38
2018-04-26T06:54:34.989Z,98208.00
2018-04-26T06:57:03.242Z,98199.55
2018-04-26T06:59:31.505Z,98205.03
2018-04-26T07:02:00.522Z,98205.00
2018-04-26T07:04:28.785Z,98211.34
2018-04-26T07:06:57.040Z,98202.05
2018-04-26T07:09:25.354Z,98195.32
2018-04-26T07:11:54.406Z,98210.48
2018-04-26T07:14:23.438Z,98202.00
2018-04-26T07:16:51.689Z,98198.09
2018-04-26T07:19:20.714Z,98199.30
2018-04-26T07:21:48.996Z,98217.98
2018-04-26T07:24:17.270Z,98207.89
2018-04-26T07:26:45.598Z,98207.12
2018-04-26T07:29:13.779Z,98213.45
2018-04-26T07:31:42.813Z,98217.59
2018-04-26T07:34:11.090Z,98215.48
2018-04-26T07:36:39.343Z,98210.30
2018-04-26T07:39:07.598Z,98235.27
2018-04-26T07:41:35.860Z,98228.13
2018-04-26T07:44:04.116Z,98229.50
2018-04-26T07:46:32.387Z,98228.19
2018-04-26T07:49:00.639Z,98229.77
2018-04-26T07:51:28.898Z,98230.54
2018-04-26T07:53:57.145Z,98237.39
2018-04-26T07:56:26.177Z,98237.14
2018-04-26T07:58:54.436Z,98233.16
2018-04-26T08:01:23.464Z,98242.75
2018-04-26T08:03:51.717Z,98248.73
2018-04-26T08:06:19.985Z,98244.54
2018-04-26T08:08:48.247Z,98244.11
2018-04-26T08:11:17.275Z,98230.52
2018-04-26T08:13:45.526Z,98236.35
2018-04-26T08:16:13.793Z,98233.98
2018-04-26T08:18:42.821Z,98246.64
2018-04-26T08:21:11.090Z,98241.53
2018-04-26T08:23:39.333Z,98242.75
2018-04-26T08:26:08.371Z,98254.20
2018-04-26T08:28:36.638Z,98253.64
2018-04-26T08:31:04.886Z,98253.06
2018-04-26T08:33:33.912Z,98261.02
2018-04-26T08:36:02.181Z,98250.20
2018-04-26T08:38:30.435Z,98259.64
2018-04-26T08:40:58.701Z,98280.70
2018-04-26T08:43:26.964Z,98259.09
2018-04-26T08:45:55.981Z,98261.28
2018-04-26T08:48:24.250Z,98244.97
2018-04-26T08:50:52.506Z,98254.17
2018-04-26T08:53:20.770Z,98264.83
2018-04-26T08:55:49.022Z,98242.81
2018-04-26T08:58:17.286Z,98262.42
2018-04-26T09:00:45.547Z,98259.41
2018-04-26T09:03:13.817Z,98270.47
2018-04-26T09:05:42.070Z,98263.13
2018-04-26T09:08:10.338Z,98265.27
2018-04-26T09:10:38.606Z,98256.99
2018-04-26T09:13:06.902Z,98255.09
2018-04-26T09:15:35.988Z,98258.64
2018-04-26T09:18:04.185Z,98269.50
2018-04-26T09:20:32.444Z,98273.48
2018-04-26T09:23:00.712Z,98271.39
2018-04-26T09:25:29.741Z,98273.13
2018-04-26T09:27:57.993Z,98265.73
2018-04-26T09:30:26.265Z,98281.13
2018-04-26T09:32:55.324Z,98278.42
2018-04-26T09:35:23.580Z,98287.11
2018-04-26T09:37:51.847Z,98282.97
2018-04-26T09:40:20.119Z,98287.75
2018-04-26T09:42:48.378Z,98307.59
2018-04-26T09:45:16.642Z,98296.11
2018-04-26T09:47:44.902Z,98286.33
2018-04-26T09:50:13.942Z,98296.42
2018-04-26T09:52:42.188Z,98300.00
2018-04-26T09:55:11.215Z,98292.57
2018-04-26T09:57:39.465Z,98287.48
2018-04-26T10:00:07.720Z,98296.88
2018-04-26T10:02:41.527Z,98307.02
2018-04-26T10:05:11.558Z,98294.42
2018-04-26T10:07:39.821Z,98281.45
2018-04-26T10:10:08.083Z,98282.84
2018-04-26T10:12:36.336Z,98284.52
2018-04-26T10:15:04.603Z,98284.38
2018-04-26T10:17:32.840Z,98281.00
2018-04-26T10:20:01.109Z,98302.56
2018-04-26T10:22:29.361Z,98294.98
2018-04-26T10:24:57.618Z,98287.98
2018-04-26T10:27:25.877Z,98286.02
2018-04-26T10:29:54.138Z,98301.63
2018-04-26T10:32:22.393Z,98295.95
2018-04-26T10:34:50.642Z,98302.39
2018-04-26T10:37:18.901Z,98307.13
2018-04-26T10:39:47.160Z,98315.09
2018-04-26T10:42:15.433Z,98310.95
2018-04-26T10:44:43.682Z,98311.23
2018-04-26T10:47:11.945Z,98309.46
2018-04-26T10:49:40.196Z,98307.59
2018-04-26T10:52:08.447Z,98313.47
2018-04-26T10:54:36.696Z,98292.74
2018-04-26T10:57:04.965Z,98295.44
2018-04-26T10:59:33.214Z,98288.92
2018-04-26T11:02:01.477Z,98299.53
2018-04-26T11:04:30.496Z,98294.52
2018-04-26T11:06:58.761Z,98289.02
2018-04-26T11:09:27.781Z,98290.12
2018-04-26T11:11:56.049Z,98282.82
2018-04-26T11:14:24.299Z,98275.05
2018-04-26T11:16:53.322Z,98278.93
2018-04-26T11:19:21.576Z,98277.67
2018-04-26T11:21:50.597Z,98289.82
2018-04-26T11:24:18.852Z,98280.09
2018-04-26T11:26:47.116Z,98293.63
2018-04-26T11:29:16.180Z,98280.01
2018-04-26T11:31:44.396Z,98279.45
2018-04-26T11:34:12.641Z,98276.67
2018-04-26T11:36:40.907Z,98280.50
2018-04-26T11:39:09.155Z,98282.98
2018-04-26T11:41:37.411Z,98295.23
2018-04-26T11:44:05.673Z,98278.39
2018-04-26T11:46:33.986Z,98303.71
2018-04-26T11:49:02.200Z,98285.27
2018-04-26T11:51:30.445Z,98296.22
2018-04-26T11:53:58.717Z,98262.78
2018-04-26T11:56:27.034Z,98271.23
2018-04-26T11:58:55.225Z,98287.23
2018-04-26T12:01:23.486Z,98284.18
2018-04-26T12:03:51.736Z,98294.83
2018-04-26T12:06:19.988Z,98296.14
2018-04-26T12:08:48.257Z,98313.81
2018-04-26T12:11:16.505Z,98295.31
2018-04-26T12:13:44.779Z,98286.72
2018-04-26T12:16:13.033Z,98288.48
2018-04-26T12:18:42.074Z,98293.18
2018-04-26T12:21:10.337Z,98305.93
2018-04-26T12:23:38.610Z,98286.05
2018-04-26T12:26:06.865Z,98284.87
2018-04-26T12:28:35.895Z,98270.58
2018-04-26T12:31:04.155Z,98285.91
2018-04-26T12:33:32.409Z,98275.75
2018-04-26T12:36:00.670Z,98299.20
2018-04-26T12:38:29.876Z,98281.78
2018-04-26T12:40:58.121Z,98277.30
2018-04-26T12:43:26.398Z,98290.69
2018-04-26T12:45:54.653Z,98280.66
2018-04-26T12:48:22.914Z,98290.31
2018-04-26T12:50:51.180Z,98281.67
2018-04-26T12:53:19.442Z,98300.06
2018-04-26T12:55:47.711Z,98277.95
2018-04-26T12:58:16.792Z,98284.80
2018-04-26T13:00:45.007Z,98299.23
2018-04-26T13:03:13.269Z,98299.98
2018-04-26T13:05:41.549Z,98294.70
2018-04-26T13:08:09.787Z,98298.33
2018-04-26T13:10:38.041Z,98304.57
2018-04-26T13:13:06.309Z,98302.48
2018-04-26T13:15:34.571Z,98303.19
2018-04-26T13:18:02.827Z,98303.83
2018-04-26T13:20:31.081Z,98308.13
2018-04-26T13:23:00.108Z,98305.14
2018-04-26T13:25:28.362Z,98306.25
2018-04-26T13:27:57.071Z,98309.80
2018-04-26T13:30:25.837Z,98309.38
2018-04-26T13:32:54.196Z,98321.38
2018-04-26T13:35:22.462Z,98310.17
2018-04-26T13:37:50.717Z,98305.05
2018-04-26T13:40:19.165Z,98302.88
2018-04-26T13:42:47.421Z,98312.81
2018-04-26T13:45:15.683Z,98297.88
2018-04-26T13:47:43.945Z,98297.50
2018-04-26T13:50:12.216Z,98302.94
2018-04-26T13:52:40.464Z,98299.70
2018-04-26T13:55:08.745Z,98301.89
2018-04-26T13:57:37.012Z,98283.45
2018-04-26T14:00:05.272Z,98289.45
2018-04-26T14:02:33.542Z,98287.23
2018-04-26T14:05:01.794Z,98278.36
2018-04-26T14:07:30.053Z,98279.23
2018-04-26T14:09:58.306Z,98282.72
2018-04-26T14:12:26.566Z,98288.59
2018-04-26T14:14:54.866Z,98293.06
2018-04-26T14:17:23.177Z,98292.41
2018-04-26T14:19:51.384Z,98291.45
2018-04-26T14:22:19.646Z,98276.28
2018-04-26T14:24:47.898Z,98271.37
2018-04-26T14:27:16.157Z,98295.76
2018-04-26T14:29:44.424Z,98269.16
2018-04-26T14:32:12.683Z,98285.81
2018-04-26T14:34:40.942Z,98295.69
2018-04-26T14:37:09.314Z,98289.06
2018-04-26T14:39:37.477Z,98274.22
2018-04-26T14:42:05.746Z,98276.53
2018-04-26T14:44:33.998Z,98287.63
2018-04-26T14:47:03.022Z,98287.69
2018-04-26T14:49:31.277Z,98287.55
2018-04-26T14:51:59.540Z,98284.38
2018-04-26T14:54:28.567Z,98274.85
2018-04-26T14:56:56.848Z,98264.98
2018-04-26T14:59:25.886Z,98267.30
2018-04-26T15:01:54.148Z,98260.21
2018-04-26T15:04:22.405Z,98265.09
2018-04-26T15:06:50.670Z,98270.53
2018-04-26T15:09:18.943Z,98279.06
2018-04-26T15:11:47.511Z,98242.19
2018-04-26T15:14:15.768Z,98281.39
2018-04-26T15:16:44.798Z,98265.48
2018-04-26T15:19:13.057Z,98267.42
2018-04-26T15:21:42.125Z,98266.39
2018-04-26T15:24:10.390Z,98254.48
2018-04-26T15:26:38.642Z,98269.75
2018-04-26T15:29:06.909Z,98271.87
2018-04-26T15:31:35.168Z,98272.21
2018-04-26T15:34:03.431Z,98274.11
2018-04-26T15:36:31.691Z,98264.77
2018-04-26T15:38:59.949Z,98263.61
2018-04-26T15:41:28.985Z,98260.81
2018-04-26T15:43:57.245Z,98253.58
2018-04-26T15:46:25.503Z,98262.95
2018-04-26T15:48:53.765Z,98261.70
2018-04-26T15:51:22.054Z,98268.29
2018-04-26T15:54:07.872Z,98262.48
2018-04-26T15:57:05.781Z,98271.77
2018-04-26T15:59:51.798Z,98271.55
2018-04-26T16:02:57.425Z,98264.69
2018-04-26T16:05:43.567Z,98261.47
2018-04-26T16:11:49.700Z,98258.22
2018-04-26T16:14:35.531Z,98258.67
2018-04-26T16:21:16.006Z,98266.28
2018-04-26T16:24:04.449Z,98257.50
2018-04-26T16:26:56.618Z,98257.61
2018-04-26T16:29:42.549Z,98263.52
2018-04-26T16:32:33.930Z,98249.17
2018-04-26T16:38:36.713Z,98260.00
2018-04-26T16:41:04.977Z,98254.03
2018-04-26T16:43:34.006Z,98258.50
2018-04-26T16:46:02.265Z,98249.83
2018-04-26T16:48:30.517Z,98255.48
2018-04-26T16:50:59.538Z,98256.31
2018-04-26T16:53:27.800Z,98247.50
2018-04-26T16:55:56.066Z,98252.33
2018-04-26T16:58:24.320Z,98245.43
2018-04-26T17:00:52.579Z,98247.52
2018-04-26T17:03:20.839Z,98247.17
2018-04-26T17:05:49.110Z,98244.61
2018-04-26T17:08:17.362Z,98259.23
2018-04-26T17:10:45.641Z,98264.80
2018-04-26T17:13:13.897Z,98251.20
2018-04-26T17:15:42.919Z,98261.09
2018-04-26T17:18:11.195Z,98265.54
2018-04-26T17:20:39.453Z,98270.38
2018-04-26T17:23:07.706Z,98265.91
2018-04-26T17:25:36.717Z,98268.36
2018-04-26T17:28:05.805Z,98267.69
2018-04-26T17:30:33.999Z,98265.45
2018-04-26T17:33:02.258Z,98261.74
2018-04-26T17:35:30.510Z,98268.25
2018-04-26T17:37:58.768Z,98273.73
2018-04-26T17:40:27.024Z,98275.70
2018-04-26T17:42:55.284Z,98279.72
2018-04-26T17:45:23.537Z,98275.80
2018-04-26T17:47:51.796Z,98275.83
2018-04-26T17:50:20.813Z,98274.08
2018-04-26T17:52:49.104Z,98286.20
2018-04-26T17:55:18.090Z,98285.29
2018-04-26T17:57:46.352Z,98279.37
2018-04-26T18:00:14.604Z,98280.81
2018-04-26T18:02:43.634Z,98282.47
2018-04-26T18:05:11.887Z,98284.72
2018-04-26T18:07:40.913Z,98281.83
2018-04-26T18:10:09.184Z,98276.75
2018-04-26T18:12:37.443Z,98280.13
2018-04-26T18:15:05.701Z,98281.00
2018-04-26T18:17:34.717Z,98278.93
2018-04-26T18:20:08.572Z,98281.11
2018-04-26T18:22:31.229Z,98294.70
2018-04-26T18:24:59.486Z,98298.92
2018-04-26T18:27:27.743Z,98295.60
2018-04-26T18:29:55.997Z,98296.91
2018-04-26T18:32:24.254Z,98300.73
2018-04-26T18:34:53.345Z,98304.99
2018-04-26T18:37:22.399Z,98302.48
2018-04-26T18:39:50.657Z,98305.87
2018-04-26T18:42:18.914Z,98304.62
2018-04-26T18:44:47.173Z,98298.30
2018-04-26T18:47:15.434Z,98305.06
2018-04-26T18:49:43.698Z,98302.52
2018-04-26T18:52:11.941Z,98302.55
2018-04-26T18:54:40.209Z,98307.22
2018-04-26T18:57:08.513Z,98320.73
2018-04-26T18:59:36.737Z,98324.96
2018-04-26T19:02:04.997Z,98325.41
2018-04-26T19:04:34.025Z,98325.41
2018-04-26T19:07:02.280Z,98326.67
2018-04-26T19:09:30.546Z,98325.81
2018-04-26T19:11:58.813Z,98332.58
2018-04-26T19:14:27.082Z,98343.12
2018-04-26T19:16:56.222Z,98340.60
2018-04-26T19:19:24.481Z,98349.88
2018-04-26T19:21:52.729Z,98346.91
2018-04-26T19:24:21.758Z,98356.19
2018-04-26T19:26:50.026Z,98362.09
2018-04-26T19:29:18.277Z,98360.83
2018-04-26T19:31:47.304Z,98366.73
2018-04-26T19:34:15.561Z,98375.13
2018-04-26T19:36:43.815Z,98367.53
2018-04-26T19:39:12.824Z,98369.63
2018-04-26T19:41:41.081Z,98367.09
2018-04-26T19:44:10.101Z,98367.92
2018-04-26T19:46:38.352Z,98371.30
2018-04-26T19:49:06.601Z,98369.15
2018-04-26T19:51:34.857Z,98376.39
2018-04-26T19:54:03.109Z,98372.98
2018-04-26T19:56:31.374Z,98372.11
2018-04-26T19:58:59.629Z,98365.80
2018-04-26T20:01:28.644Z,98364.94
2018-04-26T20:03:56.892Z,98367.88
2018-04-26T20:06:25.141Z,98359.88
2018-04-26T20:08:53.398Z,98361.99
2018-04-26T20:11:21.645Z,98361.16
2018-04-26T20:13:49.952Z,98360.30
2018-04-26T20:16:18.209Z,98355.62
2018-04-26T20:18:46.445Z,98352.63
2018-04-26T20:21:14.846Z,98351.37
2018-04-26T20:23:43.006Z,98354.26
2018-04-26T20:26:12.033Z,98350.91
2018-04-26T20:28:41.478Z,98356.83
2018-04-26T20:31:09.716Z,98358.12
2018-04-26T20:33:37.966Z,98360.20
2018-04-26T20:36:07.043Z,98362.73
2018-04-26T20:38:35.253Z,98359.05
2018-04-26T20:41:03.488Z,98355.62
2018-04-26T20:43:32.509Z,98361.50
2018-04-26T20:46:00.789Z,98360.22
2018-04-26T20:48:42.966Z,98368.63
2018-04-26T20:51:11.973Z,98370.73
2018-04-26T20:53:40.991Z,98358.95
2018-04-26T20:56:09.233Z,98358.50
2018-04-26T20:58:38.247Z,98366.48
2018-04-26T21:01:06.543Z,98356.38
2018-04-26T21:03:35.521Z,98355.49
2018-04-26T21:06:03.764Z,98349.63
2018-04-26T21:08:32.788Z,98350.45
2018-04-26T21:11:01.021Z,98351.73
2018-04-26T21:13:30.777Z,98358.06
2018-04-26T21:15:59.041Z,98353.42
2018-04-26T21:18:27.289Z,98355.95
2018-04-26T21:20:56.301Z,98360.16
2018-04-26T21:23:25.399Z,98363.92
2018-04-26T21:25:53.657Z,98357.18
2018-04-26T21:28:22.684Z,98353.84
2018-04-26T21:30:50.932Z,98350.02
2018-04-26T21:33:19.949Z,98359.33
2018-04-26T21:35:48.218Z,98365.20
2018-04-26T21:38:16.446Z,98360.58
2018-04-26T21:40:44.694Z,98355.91
2018-04-26T21:43:12.947Z,98351.66
2018-04-26T21:45:41.188Z,98352.95
2018-04-26T21:48:09.450Z,98355.52
2018-04-26T21:50:43.213Z,98352.88
2018-04-26T21:53:16.956Z,98355.00
2018-04-26T21:55:50.809Z,98357.18
2018-04-26T21:58:24.673Z,98352.92
2018-04-26T22:00:58.501Z,98357.52
2018-04-26T22:03:32.499Z,98354.65
2018-04-26T22:06:00.744Z,98356.70
2018-04-26T22:08:28.996Z,98353.30
2018-04-26T22:10:57.238Z,98353.70
2018-04-26T22:13:26.245Z,98352.03
2018-04-26T22:15:55.265Z,98353.28
2018-04-26T22:18:23.502Z,98347.73
2018-04-26T22:20:52.520Z,98346.46
2018-04-26T22:23:20.764Z,98340.97
2018-04-26T22:25:49.014Z,98340.52
2018-04-26T22:28:17.253Z,98337.48
2018-04-26T22:30:45.509Z,98336.20
2018-04-26T22:33:13.753Z,98335.78
2018-04-26T22:35:42.000Z,98337.45
2018-04-26T22:38:10.243Z,98334.14
2018-04-26T22:40:38.494Z,98326.94
2018-04-26T22:43:07.506Z,98330.59
2018-04-26T22:45:35.757Z,98326.46
2018-04-26T22:48:04.004Z,98322.97
2018-04-26T22:50:33.152Z,98325.92
2018-04-26T22:53:01.396Z,98327.07
2018-04-26T22:55:29.644Z,98324.50
2018-04-26T22:57:57.893Z,98325.27
2018-04-26T23:00:26.141Z,98329.45
2018-04-26T23:02:55.160Z,98325.67
2018-04-26T23:05:23.404Z,98331.95
2018-04-26T23:07:52.425Z,98327.75
2018-04-26T23:10:20.671Z,98325.69
2018-04-26T23:12:49.687Z,98322.88
2018-04-26T23:15:17.938Z,98324.64
2018-04-26T23:17:46.954Z,98318.27
2018-04-26T23:20:15.205Z,98329.77
2018-04-26T23:22:43.468Z,98317.94
2018-04-26T23:25:11.718Z,98322.45
2018-04-26T23:27:39.960Z,98316.17
2018-04-26T23:30:08.209Z,98313.54
2018-04-26T23:32:36.449Z,98315.70
2018-04-26T23:35:04.714Z,98317.48
2018-04-26T23:37:32.972Z,98321.23
2018-04-26T23:40:01.225Z,98312.47
2018-04-26T23:42:30.232Z,98322.76
2018-04-26T23:44:58.476Z,98320.20
2018-04-26T23:47:26.730Z,98315.61
2018-04-26T23:49:54.973Z,98316.95
2018-04-26T23:52:23.233Z,98310.65
2018-04-26T23:54:51.482Z,98304.13
2018-04-26T23:57:20.497Z,98305.98
2018-04-26T23:59:48.740Z,98311.66
